sensor_id;sensor_type;location;lat;lon;timestamp;pressure;altitude;pressure_sealevel;temperature;humidity
12963;BME280;6546;49.882;8.666;2022-11-15T00:02:23;99529.28;;;11.92;100.00
12963;BME280;6546;49.882;8.666;2022-11-15T00:04:49;99527.56;;;11.94;100.00
12963;BME280;6546;49.882;8.666;2022-11-15T00:07:16;99535.34;;;11.91;100.00
12963;BME280;6546;49.882;8.666;2022-11-15T00:09:42;99539.72;;;11.89;100.00
12963;BME280;6546;49.882;8.666;2022-11-15T00:12:09;99525.03;;;11.82;100.00
12963;BME280;6546;49.882;8.666;2022-11-15T00:14:37;99533.69;;;11.80;100.00
12963;BME280;6546;49.882;8.666;2022-11-15T00:17:04;99526.81;;;11.77;100.00
12963;BME280;6546;49.882;8.666;2022-11-15T00:19:30;99525.03;;;11.87;100.00
12963;BME280;6546;49.882;8.666;2022-11-15T00:21:58;99526.78;;;11.83;100.00
12963;BME280;6546;49.882;8.666;2022-11-15T00:24:25;99526.81;;;11.77;100.00
12963;BME280;6546;49.882;8.666;2022-11-15T00:26:51;99525.06;;;11.79;100.00
12963;BME280;6546;49.882;8.666;2022-11-15T00:29:18;99524.22;;;11.77;100.00
12963;BME280;6546;49.882;8.666;2022-11-15T00:31:46;99525.06;;;11.79;100.00
12963;BME280;6546;49.882;8.666;2022-11-15T00:34:12;99525.03;;;11.87;100.00
12963;BME280;6546;49.882;8.666;2022-11-15T00:36:39;99529.34;;;11.89;100.00
12963;BME280;6546;49.882;8.666;2022-11-15T00:39:09;99522.44;;;11.90;100.00
12963;BME280;6546;49.882;8.666;2022-11-15T00:41:35;99527.59;;;11.91;100.00
12963;BME280;6546;49.882;8.666;2022-11-15T00:44:02;99526.69;;;11.97;100.00
12963;BME280;6546;49.882;8.666;2022-11-15T00:46:29;99535.28;;;12.01;100.00
12963;BME280;6546;49.882;8.666;2022-11-15T00:48:57;99524.91;;;12.02;100.00
12963;BME280;6546;49.882;8.666;2022-11-15T00:51:23;99518.69;;;12.17;100.00
12963;BME280;6546;49.882;8.666;2022-11-15T00:53:50;99510.13;;;12.12;100.00
12963;BME280;6546;49.882;8.666;2022-11-15T00:56:17;99508.38;;;12.12;100.00
12963;BME280;6546;49.882;8.666;2022-11-15T00:58:43;99506.63;;;12.16;100.00
12963;BME280;6546;49.882;8.666;2022-11-15T01:01:12;99510.91;;;12.17;100.00
12963;BME280;6546;49.882;8.666;2022-11-15T01:03:39;99508.38;;;12.14;100.00
12963;BME280;6546;49.882;8.666;2022-11-15T01:06:08;99507.50;;;12.13;100.00
12963;BME280;6546;49.882;8.666;2022-11-15T01:08:35;99506.69;;;12.10;100.00
12963;BME280;6546;49.882;8.666;2022-11-15T01:11:03;99494.56;;;12.12;100.00
12963;BME280;6546;49.882;8.666;2022-11-15T01:13:31;99494.56;;;12.12;100.00
12963;BME280;6546;49.882;8.666;2022-11-15T01:15:58;99494.56;;;12.09;100.00
12963;BME280;6546;49.882;8.666;2022-11-15T01:18:25;99497.94;;;12.17;100.00
12963;BME280;6546;49.882;8.666;2022-11-15T01:20:51;99491.91;;;12.16;100.00
12963;BME280;6546;49.882;8.666;2022-11-15T01:23:19;99491.06;;;12.16;100.00
12963;BME280;6546;49.882;8.666;2022-11-15T01:25:46;99494.53;;;12.13;100.00
12963;BME280;6546;49.882;8.666;2022-11-15T01:28:12;99490.16;;;12.20;100.00
12963;BME280;6546;49.882;8.666;2022-11-15T01:30:39;99484.97;;;12.17;100.00
12963;BME280;6546;49.882;8.666;2022-11-15T01:33:06;99482.44;;;12.14;100.00
12963;BME280;6546;49.882;8.666;2022-11-15T01:35:32;99487.56;;;12.17;100.00
12963;BME280;6546;49.882;8.666;2022-11-15T01:37:59;99483.28;;;12.16;100.00
12963;BME280;6546;49.882;8.666;2022-11-15T01:40:27;99482.38;;;12.17;100.00
12963;BME280;6546;49.882;8.666;2022-11-15T01:42:54;99479.00;;;12.12;100.00
12963;BME280;6546;49.882;8.666;2022-11-15T01:45:20;99489.38;;;12.09;100.00
12963;BME280;6546;49.882;8.666;2022-11-15T01:47:50;99484.25;;;12.06;100.00
12963;BME280;6546;49.882;8.666;2022-11-15T01:50:21;99485.16;;;12.00;100.00
12963;BME280;6546;49.882;8.666;2022-11-15T01:52:48;99490.41;;;11.97;100.00
12963;BME280;6546;49.882;8.666;2022-11-15T01:55:18;99494.69;;;11.96;100.00
12963;BME280;6546;49.882;8.666;2022-11-15T01:57:50;99496.44;;;11.97;100.00
12963;BME280;6546;49.882;8.666;2022-11-15T02:00:20;99486.91;;;11.96;100.00
12963;BME280;6546;49.882;8.666;2022-11-15T02:02:47;99482.63;;;11.95;100.00
12963;BME280;6546;49.882;8.666;2022-11-15T02:05:24;99484.38;;;11.93;100.00
12963;BME280;6546;49.882;8.666;2022-11-15T02:07:51;99473.13;;;11.94;100.00
12963;BME280;6546;49.882;8.666;2022-11-15T02:10:20;99465.31;;;11.97;100.00
12963;BME280;6546;49.882;8.666;2022-11-15T02:12:49;99465.28;;;12.01;100.00
12963;BME280;6546;49.882;8.666;2022-11-15T02:15:16;99455.78;;;12.01;100.00
12963;BME280;6546;49.882;8.666;2022-11-15T02:17:58;99454.06;;;12.02;100.00
12963;BME280;6546;49.882;8.666;2022-11-15T02:21:01;99446.28;;;11.98;100.00
12963;BME280;6546;49.882;8.666;2022-11-15T02:29:32;99428.91;;;12.08;100.00
12963;BME280;6546;49.882;8.666;2022-11-15T02:32:13;99428.91;;;12.10;100.00
12963;BME280;6546;49.882;8.666;2022-11-15T02:34:48;99427.16;;;12.09;100.00
12963;BME280;6546;49.882;8.666;2022-11-15T02:37:39;99426.34;;;12.07;100.00
12963;BME280;6546;49.882;8.666;2022-11-15T02:40:11;99421.19;;;12.05;100.00
12963;BME280;6546;49.882;8.666;2022-11-15T02:42:45;99416.97;;;11.93;100.00
12963;BME280;6546;49.882;8.666;2022-11-15T02:45:48;99417.00;;;11.90;100.00
12963;BME280;6546;49.882;8.666;2022-11-15T02:48:18;99415.31;;;11.86;100.00
12963;BME280;6546;49.882;8.666;2022-11-15T02:50:47;99417.06;;;11.80;100.00
12963;BME280;6546;49.882;8.666;2022-11-15T02:53:14;99413.69;;;11.76;100.00
12963;BME280;6546;49.882;8.666;2022-11-15T02:55:44;99418.91;;;11.70;100.00
12963;BME280;6546;49.882;8.666;2022-11-15T02:58:24;99411.19;;;11.64;100.00
12963;BME280;6546;49.882;8.666;2022-11-15T03:01:00;99408.72;;;11.55;100.00
12963;BME280;6546;49.882;8.666;2022-11-15T03:03:41;99418.25;;;11.48;100.00
12963;BME280;6546;49.882;8.666;2022-11-15T03:06:20;99412.25;;;11.41;100.00
12963;BME280;6546;49.882;8.666;2022-11-15T03:08:55;99415.78;;;11.34;100.00
12963;BME280;6546;49.882;8.666;2022-11-15T03:11:24;99404.59;;;11.28;100.00
12963;BME280;6546;49.882;8.666;2022-11-15T03:13:56;99403.78;;;11.22;100.00
12963;BME280;6546;49.882;8.666;2022-11-15T03:16:28;99403.78;;;11.26;100.00
12963;BME280;6546;49.882;8.666;2022-11-15T03:19:03;99394.34;;;11.17;100.00
12963;BME280;6546;49.882;8.666;2022-11-15T03:21:32;99397.81;;;11.14;100.00
12963;BME280;6546;49.882;8.666;2022-11-15T03:24:03;99402.16;;;11.11;100.00
12963;BME280;6546;49.882;8.666;2022-11-15T03:26:32;99397.88;;;11.08;100.00
12963;BME280;6546;49.882;8.666;2022-11-15T03:29:03;99409.97;;;11.05;100.00
12963;BME280;6546;49.882;8.666;2022-11-15T03:31:33;99414.28;;;11.03;100.00
12963;BME280;6546;49.882;8.666;2022-11-15T03:34:22;99413.47;;;11.01;100.00
12963;BME280;6546;49.882;8.666;2022-11-15T03:36:52;99407.41;;;11.02;100.00
12963;BME280;6546;49.882;8.666;2022-11-15T03:39:19;99410.88;;;11.01;100.00
12963;BME280;6546;49.882;8.666;2022-11-15T03:41:51;99402.25;;;11.00;100.00
12963;BME280;6546;49.882;8.666;2022-11-15T03:44:34;99410.88;;;11.01;100.00
12963;BME280;6546;49.882;8.666;2022-11-15T03:47:06;99408.28;;;11.01;100.00
12963;BME280;6546;49.882;8.666;2022-11-15T03:49:39;99414.31;;;10.99;100.00
12963;BME280;6546;49.882;8.666;2022-11-15T03:52:09;99397.97;;;10.96;100.00
12963;BME280;6546;49.882;8.666;2022-11-15T03:54:36;99400.56;;;10.93;100.00
12963;BME280;6546;49.882;8.666;2022-11-15T03:57:03;99405.75;;;10.90;100.00
12963;BME280;6546;49.882;8.666;2022-11-15T03:59:29;99406.63;;;10.89;100.00
12963;BME280;6546;49.882;8.666;2022-11-15T04:01:56;99401.47;;;10.87;100.00
12963;BME280;6546;49.882;8.666;2022-11-15T04:04:22;99412.66;;;10.86;100.00
12963;BME280;6546;49.882;8.666;2022-11-15T04:06:50;99411.81;;;10.86;100.00
12963;BME280;6546;49.882;8.666;2022-11-15T04:09:17;99407.53;;;10.83;100.00
12963;BME280;6546;49.882;8.666;2022-11-15T04:11:43;99413.56;;;10.85;100.00
12963;BME280;6546;49.882;8.666;2022-11-15T04:14:09;99417.88;;;10.83;100.00
12963;BME280;6546;49.882;8.666;2022-11-15T04:16:36;99414.44;;;10.81;100.00
12963;BME280;6546;49.882;8.666;2022-11-15T04:19:02;99406.69;;;10.80;100.00
12963;BME280;6546;49.882;8.666;2022-11-15T04:21:47;99409.25;;;10.81;100.00
12963;BME280;6546;49.882;8.666;2022-11-15T04:24:32;99416.19;;;10.79;100.00
12963;BME280;6546;49.882;8.666;2022-11-15T04:26:59;99423.94;;;10.81;100.00
12963;BME280;6546;49.882;8.666;2022-11-15T04:29:26;99419.63;;;10.80;100.00
12963;BME280;6546;49.882;8.666;2022-11-15T04:32:01;99416.16;;;10.81;100.00
12963;BME280;6546;49.882;8.666;2022-11-15T04:34:28;99405.81;;;10.82;100.00
12963;BME280;6546;49.882;8.666;2022-11-15T04:36:54;99405.81;;;10.82;100.00
12963;BME280;6546;49.882;8.666;2022-11-15T04:39:42;99401.47;;;10.83;100.00
12963;BME280;6546;49.882;8.666;2022-11-15T04:42:10;99403.22;;;10.84;100.00
12963;BME280;6546;49.882;8.666;2022-11-15T04:44:36;99406.63;;;10.86;100.00
12963;BME280;6546;49.882;8.666;2022-11-15T04:47:03;99404.06;;;10.87;100.00
12963;BME280;6546;49.882;8.666;2022-11-15T04:49:29;99410.94;;;10.88;100.00
12963;BME280;6546;49.882;8.666;2022-11-15T04:51:56;99405.78;;;10.88;100.00
12963;BME280;6546;49.882;8.666;2022-11-15T04:54:22;99410.09;;;10.88;100.00
12963;BME280;6546;49.882;8.666;2022-11-15T04:56:50;99400.59;;;10.88;100.00
12963;BME280;6546;49.882;8.666;2022-11-15T04:59:17;99401.44;;;10.89;100.00
12963;BME280;6546;49.882;8.666;2022-11-15T05:01:43;99393.72;;;10.87;100.00
12963;BME280;6546;49.882;8.666;2022-11-15T05:04:10;99400.59;;;10.88;100.00
12963;BME280;6546;49.882;8.666;2022-11-15T05:06:45;99401.47;;;10.87;100.00
12963;BME280;6546;49.882;8.666;2022-11-15T05:09:12;99400.59;;;10.85;100.00
12963;BME280;6546;49.882;8.666;2022-11-15T05:11:39;99397.19;;;10.83;100.00
12963;BME280;6546;49.882;8.666;2022-11-15T05:14:07;99396.31;;;10.81;100.00
12963;BME280;6546;49.882;8.666;2022-11-15T05:16:34;99393.75;;;10.81;100.00
12963;BME280;6546;49.882;8.666;2022-11-15T05:19:00;99388.56;;;10.81;100.00
12963;BME280;6546;49.882;8.666;2022-11-15T05:21:27;99393.75;;;10.81;100.00
12963;BME280;6546;49.882;8.666;2022-11-15T05:23:53;99382.53;;;10.81;100.00
12963;BME280;6546;49.882;8.666;2022-11-15T05:26:20;99383.38;;;10.81;100.00
12963;BME280;6546;49.882;8.666;2022-11-15T05:28:46;99384.25;;;10.80;100.00
12963;BME280;6546;49.882;8.666;2022-11-15T05:31:15;99394.59;;;10.82;100.00
12963;BME280;6546;49.882;8.666;2022-11-15T05:33:43;99388.56;;;10.81;100.00
12963;BME280;6546;49.882;8.666;2022-11-15T05:36:14;99384.25;;;10.80;100.00
12963;BME280;6546;49.882;8.666;2022-11-15T05:38:43;99379.09;;;10.80;100.00
12963;BME280;6546;49.882;8.666;2022-11-15T05:41:10;99379.97;;;10.79;100.00
12963;BME280;6546;49.882;8.666;2022-11-15T05:43:39;99379.97;;;10.79;100.00
12963;BME280;6546;49.882;8.666;2022-11-15T05:46:07;99376.50;;;10.80;100.00
12963;BME280;6546;49.882;8.666;2022-11-15T05:48:36;99377.34;;;10.81;100.00
12963;BME280;6546;49.882;8.666;2022-11-15T05:51:04;99375.63;;;10.81;100.00
12963;BME280;6546;49.882;8.666;2022-11-15T05:53:33;99377.34;;;10.81;100.00
12963;BME280;6546;49.882;8.666;2022-11-15T05:56:00;99370.44;;;10.81;100.00
12963;BME280;6546;49.882;8.666;2022-11-15T05:58:27;99360.09;;;10.84;100.00
12963;BME280;6546;49.882;8.666;2022-11-15T06:00:53;99365.19;;;10.90;100.00
12963;BME280;6546;49.882;8.666;2022-11-15T06:03:20;99355.69;;;10.97;100.00
12963;BME280;6546;49.882;8.666;2022-11-15T06:05:48;99365.16;;;10.98;100.00
12963;BME280;6546;49.882;8.666;2022-11-15T06:08:15;99359.09;;;11.01;100.00
12963;BME280;6546;49.882;8.666;2022-11-15T06:10:41;99369.47;;;10.97;100.00
12963;BME280;6546;49.882;8.666;2022-11-15T06:13:08;99368.59;;;10.95;100.00
12963;BME280;6546;49.882;8.666;2022-11-15T06:15:34;99372.06;;;10.94;100.00
12963;BME280;6546;49.882;8.666;2022-11-15T06:18:01;99363.47;;;10.94;100.00
12963;BME280;6546;49.882;8.666;2022-11-15T06:20:29;99366.03;;;10.94;100.00
12963;BME280;6546;49.882;8.666;2022-11-15T06:22:58;99373.81;;;10.92;100.00
12963;BME280;6546;49.882;8.666;2022-11-15T06:25:25;99376.41;;;10.92;100.00
12963;BME280;6546;49.882;8.666;2022-11-15T06:27:51;99380.69;;;10.95;100.00
12963;BME280;6546;49.882;8.666;2022-11-15T06:30:18;99383.25;;;10.98;100.00
12963;BME280;6546;49.882;8.666;2022-11-15T06:32:45;99379.81;;;11.01;100.00
12963;BME280;6546;49.882;8.666;2022-11-15T06:35:12;99364.28;;;11.01;100.00
12963;BME280;6546;49.882;8.666;2022-11-15T06:37:39;99369.44;;;11.02;100.00
12963;BME280;6546;49.882;8.666;2022-11-15T06:40:08;99374.59;;;11.04;100.00
12963;BME280;6546;49.882;8.666;2022-11-15T06:42:35;99371.16;;;11.05;100.00
12963;BME280;6546;49.882;8.666;2022-11-15T06:45:02;99371.16;;;11.05;100.00
12963;BME280;6546;49.882;8.666;2022-11-15T06:47:28;99372.88;;;11.06;100.00
12963;BME280;6546;49.882;8.666;2022-11-15T06:49:55;99378.03;;;11.06;100.00
12963;BME280;6546;49.882;8.666;2022-11-15T06:52:22;99378.03;;;11.09;100.00
12963;BME280;6546;49.882;8.666;2022-11-15T06:54:48;99379.72;;;11.10;100.00
12963;BME280;6546;49.882;8.666;2022-11-15T06:57:16;99377.16;;;11.08;100.00
12963;BME280;6546;49.882;8.666;2022-11-15T06:59:43;99378.88;;;11.09;100.00
12963;BME280;6546;49.882;8.666;2022-11-15T07:02:12;99382.31;;;11.10;100.00
12963;BME280;6546;49.882;8.666;2022-11-15T07:04:38;99383.19;;;11.09;100.00
12963;BME280;6546;49.882;8.666;2022-11-15T07:07:05;99382.31;;;11.10;100.00
12963;BME280;6546;49.882;8.666;2022-11-15T07:09:32;99374.56;;;11.10;100.00
12963;BME280;6546;49.882;8.666;2022-11-15T07:11:58;99376.25;;;11.11;100.00
12963;BME280;6546;49.882;8.666;2022-11-15T07:14:26;99378.84;;;11.11;100.00
12963;BME280;6546;49.882;8.666;2022-11-15T07:16:52;99375.41;;;11.10;100.00
12963;BME280;6546;49.882;8.666;2022-11-15T07:19:19;99377.13;;;11.13;100.00
12963;BME280;6546;49.882;8.666;2022-11-15T07:21:45;99377.13;;;11.13;100.00
12963;BME280;6546;49.882;8.666;2022-11-15T07:24:12;99373.63;;;11.18;100.00
12963;BME280;6546;49.882;8.666;2022-11-15T07:26:39;99373.53;;;11.28;100.00
12963;BME280;6546;49.882;8.666;2022-11-15T07:29:06;99372.63;;;11.33;100.00
12963;BME280;6546;49.882;8.666;2022-11-15T07:31:33;99372.59;;;11.36;100.00
12963;BME280;6546;49.882;8.666;2022-11-15T07:34:00;99373.38;;;11.47;100.00
12963;BME280;6546;49.882;8.666;2022-11-15T07:36:27;99365.59;;;11.47;100.00
12963;BME280;6546;49.882;8.666;2022-11-15T07:38:54;99371.56;;;11.53;100.00
12963;BME280;6546;49.882;8.666;2022-11-15T07:41:20;99372.47;;;11.52;100.00
12963;BME280;6546;49.882;8.666;2022-11-15T07:43:47;99360.34;;;11.54;100.00
12963;BME280;6546;49.882;8.666;2022-11-15T07:46:13;99370.66;;;11.57;100.00
12963;BME280;6546;49.882;8.666;2022-11-15T07:48:41;99365.44;;;11.61;100.00
12963;BME280;6546;49.882;8.666;2022-11-15T07:51:11;99364.53;;;11.65;100.00
12963;BME280;6546;49.882;8.666;2022-11-15T07:53:37;99363.72;;;11.63;100.00
12963;BME280;6546;49.882;8.666;2022-11-15T07:56:05;99360.22;;;11.66;100.00
12963;BME280;6546;49.882;8.666;2022-11-15T07:58:32;99367.06;;;11.70;100.00
12963;BME280;6546;49.882;8.666;2022-11-15T08:01:02;99367.06;;;11.73;100.00
12963;BME280;6546;49.882;8.666;2022-11-15T08:03:28;99361.78;;;11.79;100.00
12963;BME280;6546;49.882;8.666;2022-11-15T08:05:56;99366.09;;;11.85;100.00
12963;BME280;6546;49.882;8.666;2022-11-15T08:08:23;99365.16;;;11.90;100.00
12963;BME280;6546;49.882;8.666;2022-11-15T08:10:49;99366.78;;;11.99;100.00
12963;BME280;6546;49.882;8.666;2022-11-15T08:13:16;99364.16;;;12.02;100.00
12963;BME280;6546;49.882;8.666;2022-11-15T08:15:43;99369.31;;;12.05;100.00
12963;BME280;6546;49.882;8.666;2022-11-15T08:18:11;99362.28;;;12.15;100.00
12963;BME280;6546;49.882;8.666;2022-11-15T08:20:39;99370.81;;;12.21;100.00
12963;BME280;6546;49.882;8.666;2022-11-15T08:23:07;99363.94;;;12.22;100.00
12963;BME280;6546;49.882;8.666;2022-11-15T08:25:35;99367.38;;;12.22;100.00
12963;BME280;6546;49.882;8.666;2022-11-15T08:28:04;99371.72;;;12.22;100.00
12963;BME280;6546;49.882;8.666;2022-11-15T08:30:34;99369.94;;;12.24;100.00
12963;BME280;6546;49.882;8.666;2022-11-15T08:33:02;99364.72;;;12.27;100.00
12963;BME280;6546;49.882;8.666;2022-11-15T08:35:29;99350.88;;;12.28;100.00
12963;BME280;6546;49.882;8.666;2022-11-15T08:37:56;99356.88;;;12.30;100.00
12963;BME280;6546;49.882;8.666;2022-11-15T08:40:24;99352.53;;;12.32;100.00
12963;BME280;6546;49.882;8.666;2022-11-15T08:42:52;99361.22;;;12.31;100.00
12963;BME280;6546;49.882;8.666;2022-11-15T08:45:18;99355.13;;;12.32;100.00
12963;BME280;6546;49.882;8.666;2022-11-15T08:47:45;99360.31;;;12.32;100.00
12963;BME280;6546;49.882;8.666;2022-11-15T08:50:11;99364.63;;;12.33;100.00
12963;BME280;6546;49.882;8.666;2022-11-15T08:52:38;99362.81;;;12.38;100.00
12963;BME280;6546;49.882;8.666;2022-11-15T08:55:05;99360.25;;;12.37;100.00
12963;BME280;6546;49.882;8.666;2022-11-15T08:57:33;99363.66;;;12.42;100.00
12963;BME280;6546;49.882;8.666;2022-11-15T09:00:00;99367.19;;;12.36;100.00
12963;BME280;6546;49.882;8.666;2022-11-15T09:02:27;99362.88;;;12.35;100.00
12963;BME280;6546;49.882;8.666;2022-11-15T09:04:53;99355.88;;;12.43;100.00
12963;BME280;6546;49.882;8.666;2022-11-15T09:07:20;99354.22;;;12.36;100.00
12963;BME280;6546;49.882;8.666;2022-11-15T09:09:46;99360.28;;;12.34;100.00
12963;BME280;6546;49.882;8.666;2022-11-15T09:12:13;99355.94;;;12.39;100.00
12963;BME280;6546;49.882;8.666;2022-11-15T09:14:41;99359.38;;;12.39;100.00
12963;BME280;6546;49.882;8.666;2022-11-15T09:17:07;99345.47;;;12.43;100.00
12963;BME280;6546;49.882;8.666;2022-11-15T09:19:34;99346.34;;;12.42;100.00
12963;BME280;6546;49.882;8.666;2022-11-15T09:22:02;99345.47;;;12.43;100.00
12963;BME280;6546;49.882;8.666;2022-11-15T09:24:31;99337.56;;;12.51;100.00
12963;BME280;6546;49.882;8.666;2022-11-15T09:26:58;99343.66;;;12.50;100.00
12963;BME280;6546;49.882;8.666;2022-11-15T09:29:24;99344.44;;;12.55;100.00
12963;BME280;6546;49.882;8.666;2022-11-15T09:31:53;99346.94;;;12.60;100.00
12963;BME280;6546;49.882;8.666;2022-11-15T09:34:19;99341.78;;;12.58;100.00
12963;BME280;6546;49.882;8.666;2022-11-15T09:36:46;99339.16;;;12.60;100.00
12963;BME280;6546;49.882;8.666;2022-11-15T09:39:13;99332.28;;;12.59;100.00
12963;BME280;6546;49.882;8.666;2022-11-15T09:44:54;99343.53;;;12.58;100.00
12963;BME280;6546;49.882;8.666;2022-11-15T09:47:42;99348.63;;;12.64;100.00
12963;BME280;6546;49.882;8.666;2022-11-15T09:50:14;99338.25;;;12.64;100.00
12963;BME280;6546;49.882;8.666;2022-11-15T09:52:43;99334.78;;;12.65;100.00
12963;BME280;6546;49.882;8.666;2022-11-15T09:55:12;99337.44;;;12.62;100.00
12963;BME280;6546;49.882;8.666;2022-11-15T09:57:51;99327.75;;;12.73;100.00
12963;BME280;6546;49.882;8.666;2022-11-15T10:00:21;99331.19;;;12.72;100.00
12963;BME280;6546;49.882;8.666;2022-11-15T10:03:06;99331.94;;;12.80;100.00
12963;BME280;6546;49.882;8.666;2022-11-15T10:05:38;99332.69;;;12.88;100.00
12963;BME280;6546;49.882;8.666;2022-11-15T10:08:15;99330.94;;;12.89;100.00
12963;BME280;6546;49.882;8.666;2022-11-15T10:10:46;99324.97;;;12.84;100.00
12963;BME280;6546;49.882;8.666;2022-11-15T10:13:20;99324.88;;;12.90;100.00
12963;BME280;6546;49.882;8.666;2022-11-15T10:15:49;99314.44;;;12.94;100.00
12963;BME280;6546;49.882;8.666;2022-11-15T10:18:18;99317.78;;;12.99;100.00
12963;BME280;6546;49.882;8.666;2022-11-15T10:20:57;99320.31;;;13.04;100.00
12963;BME280;6546;49.882;8.666;2022-11-15T10:23:24;99306.47;;;13.04;100.00
12963;BME280;6546;49.882;8.666;2022-11-15T10:25:53;99299.47;;;13.09;100.00
12963;BME280;6546;49.882;8.666;2022-11-15T10:28:24;99301.25;;;13.07;100.00
12963;BME280;6546;49.882;8.666;2022-11-15T10:30:53;99305.53;;;13.08;100.00
12963;BME280;6546;49.882;8.666;2022-11-15T10:33:29;99295.13;;;13.09;100.00
12963;BME280;6546;49.882;8.666;2022-11-15T10:36:17;99306.34;;;13.10;100.00
12963;BME280;6546;49.882;8.666;2022-11-15T10:38:55;99301.06;;;13.16;100.00
12963;BME280;6546;49.882;8.666;2022-11-15T10:41:29;99281.97;;;13.18;100.00
12963;BME280;6546;49.882;8.666;2022-11-15T10:44:21;99288.91;;;13.18;100.00
12963;BME280;6546;49.882;8.666;2022-11-15T10:47:04;99285.34;;;13.25;100.00
12963;BME280;6546;49.882;8.666;2022-11-15T10:49:34;99276.75;;;13.20;100.00
12963;BME280;6546;49.882;8.666;2022-11-15T10:52:02;99275.09;;;13.16;100.00
12963;BME280;6546;49.882;8.666;2022-11-15T10:54:36;99267.41;;;13.11;100.00
12963;BME280;6546;49.882;8.666;2022-11-15T10:57:06;99260.47;;;13.10;100.00
12963;BME280;6546;49.882;8.666;2022-11-15T10:59:36;99263.06;;;13.12;100.00
12963;BME280;6546;49.882;8.666;2022-11-15T11:02:27;99262.19;;;13.11;100.00
12963;BME280;6546;49.882;8.666;2022-11-15T11:04:56;99258.75;;;13.11;100.00
12963;BME280;6546;49.882;8.666;2022-11-15T11:07:25;99247.34;;;13.18;100.00
12963;BME280;6546;49.882;8.666;2022-11-15T11:09:58;99250.88;;;13.14;100.00
12963;BME280;6546;49.882;8.666;2022-11-15T11:12:28;99249.09;;;13.19;100.00
12963;BME280;6546;49.882;8.666;2022-11-15T11:14:55;99244.63;;;13.26;100.00
12963;BME280;6546;49.882;8.666;2022-11-15T11:17:30;99238.47;;;13.31;100.00
12963;BME280;6546;49.882;8.666;2022-11-15T11:20:06;99234.06;;;13.35;100.00
12963;BME280;6546;49.882;8.666;2022-11-15T11:22:39;99224.53;;;13.35;100.00
12963;BME280;6546;49.882;8.666;2022-11-15T11:25:21;99229.63;;;13.40;100.00
12963;BME280;6546;49.882;8.666;2022-11-15T11:27:59;99223.34;;;13.53;100.00
12963;BME280;6546;49.882;8.666;2022-11-15T11:30:37;99219.84;;;13.54;100.00
12963;BME280;6546;49.882;8.666;2022-11-15T11:33:13;99212.69;;;13.65;100.00
12963;BME280;6546;49.882;8.666;2022-11-15T11:35:54;99203.84;;;13.74;100.00
12963;BME280;6546;49.882;8.666;2022-11-15T11:41:24;99194.19;;;13.79;100.00
12963;BME280;6546;49.882;8.666;2022-11-15T11:44:02;99195.94;;;13.77;100.00
12963;BME280;6546;49.882;8.666;2022-11-15T11:46:45;99194.09;;;13.84;100.00
12963;BME280;6546;49.882;8.666;2022-11-15T11:49:17;99188.66;;;13.93;100.00
12963;BME280;6546;49.882;8.666;2022-11-15T11:51:50;99185.28;;;13.89;100.00
12963;BME280;6546;49.882;8.666;2022-11-15T11:54:22;99180.00;;;13.92;100.00
12963;BME280;6546;49.882;8.666;2022-11-15T11:56:50;99182.56;;;13.95;100.00
12963;BME280;6546;49.882;8.666;2022-11-15T11:59:21;99166.00;;;14.00;100.00
12963;BME280;6546;49.882;8.666;2022-11-15T12:01:52;99172.75;;;14.07;100.00
12963;BME280;6546;49.882;8.666;2022-11-15T12:04:21;99170.97;;;14.09;100.00
12963;BME280;6546;49.882;8.666;2022-11-15T12:06:58;99162.28;;;14.10;100.00
12963;BME280;6546;49.882;8.666;2022-11-15T12:09:30;99151.75;;;14.16;100.00
12963;BME280;6546;49.882;8.666;2022-11-15T12:12:02;99151.63;;;14.19;100.00
12963;BME280;6546;49.882;8.666;2022-11-15T12:14:36;99147.28;;;14.19;100.00
12963;BME280;6546;49.882;8.666;2022-11-15T12:17:05;99142.97;;;14.20;100.00
12963;BME280;6546;49.882;8.666;2022-11-15T12:19:35;99140.28;;;14.23;100.00
12963;BME280;6546;49.882;8.666;2022-11-15T12:22:06;99130.59;;;14.28;100.00
12963;BME280;6546;49.882;8.666;2022-11-15T12:24:39;99132.22;;;14.32;100.00
12963;BME280;6546;49.882;8.666;2022-11-15T12:27:14;99124.44;;;14.32;100.00
12963;BME280;6546;49.882;8.666;2022-11-15T12:29:45;99122.59;;;14.36;100.00
12963;BME280;6546;49.882;8.666;2022-11-15T12:32:22;99118.22;;;14.38;100.00
12963;BME280;6546;49.882;8.666;2022-11-15T12:34:51;99113.88;;;14.38;100.00
12963;BME280;6546;49.882;8.666;2022-11-15T12:37:53;99103.47;;;14.38;100.00
12963;BME280;6546;49.882;8.666;2022-11-15T12:40:27;99111.41;;;14.32;100.00
12963;BME280;6546;49.882;8.666;2022-11-15T12:43:01;99115.69;;;14.35;100.00
12963;BME280;6546;49.882;8.666;2022-11-15T12:45:30;99115.00;;;14.28;100.00
12963;BME280;6546;49.882;8.666;2022-11-15T12:58:26;99097.84;;;14.21;100.00
12963;BME280;6546;49.882;8.666;2022-11-15T13:00:54;99100.41;;;14.22;100.00
12963;BME280;6546;49.882;8.666;2022-11-15T13:03:25;99094.28;;;14.25;100.00
12963;BME280;6546;49.882;8.666;2022-11-15T13:06:08;99096.28;;;14.14;100.00
12963;BME280;6546;49.882;8.666;2022-11-15T13:08:45;99091.94;;;14.14;100.00
12963;BME280;6546;49.882;8.666;2022-11-15T13:11:45;99092.22;;;14.04;100.00
12963;BME280;6546;49.882;8.666;2022-11-15T13:14:48;99093.25;;;13.96;100.00
12963;BME280;6546;49.882;8.666;2022-11-15T13:17:31;99089.91;;;13.90;100.00
12963;BME280;6546;49.882;8.666;2022-11-15T13:20:17;99088.28;;;13.86;100.00
12963;BME280;6546;49.882;8.666;2022-11-15T13:22:45;99084.03;;;13.83;100.00
12963;BME280;6546;49.882;8.666;2022-11-15T13:25:36;99084.03;;;13.82;100.00
12963;BME280;6546;49.882;8.666;2022-11-15T13:28:11;99072.78;;;13.81;100.00
12963;BME280;6546;49.882;8.666;2022-11-15T13:30:50;99060.69;;;13.80;100.00
12963;BME280;6546;49.882;8.666;2022-11-15T13:33:19;99065.84;;;13.82;100.00
12963;BME280;6546;49.882;8.666;2022-11-15T13:35:49;99055.53;;;13.79;100.00
12963;BME280;6546;49.882;8.666;2022-11-15T13:38:18;99055.50;;;13.80;100.00
12963;BME280;6546;49.882;8.666;2022-11-15T13:40:46;99054.66;;;13.80;100.00